createdAt,value
2022-11-26T00:02:17.780Z,101139.19
2022-11-26T00:04:45.332Z,101132.44
2022-11-26T00:07:13.155Z,101139.19
2022-11-26T00:09:40.061Z,101140.72
2022-11-26T00:12:17.398Z,101135.72
2022-11-26T00:14:47.479Z,101141.06
2022-11-26T00:17:14.871Z,101146.94
2022-11-26T00:19:50.635Z,101138.97
2022-11-26T00:22:27.466Z,101147.53
2022-11-26T00:24:59.422Z,101151.28
2022-11-26T00:27:30.489Z,101152.25
2022-11-26T00:29:57.665Z,101160.00
2022-11-26T00:32:25.453Z,101160.72
2022-11-26T00:34:54.246Z,101163.22
2022-11-26T00:37:26.111Z,101169.13
2022-11-26T00:39:53.119Z,101167.66
2022-11-26T00:42:20.071Z,101166.09
2022-11-26T00:44:46.896Z,101171.22
2022-11-26T00:47:13.604Z,101177.03
2022-11-26T00:49:40.230Z,101172.72
2022-11-26T00:52:21.106Z,101176.13
2022-11-26T00:54:50.410Z,101164.72
2022-11-26T00:57:17.127Z,101155.94
2022-11-26T00:59:48.409Z,101158.75
2022-11-26T01:02:15.754Z,101161.16
2022-11-26T01:04:42.505Z,101156.63
2022-11-26T01:07:10.969Z,101160.81
2022-11-26T01:09:39.052Z,101157.94
2022-11-26T01:12:07.006Z,101166.69
2022-11-26T01:14:34.052Z,101171.78
2022-11-26T01:17:00.931Z,101168.53
2022-11-26T01:19:27.840Z,101172.13
2022-11-26T01:21:54.486Z,101176.94
2022-11-26T01:24:21.199Z,101182.66
2022-11-26T01:26:47.956Z,101180.72
2022-11-26T01:29:16.611Z,101171.44
2022-11-26T01:31:44.476Z,101183.75
2022-11-26T01:34:11.704Z,101180.91
2022-11-26T01:36:39.652Z,101183.38
2022-11-26T01:39:06.233Z,101187.78
2022-11-26T01:41:39.116Z,101180.03
2022-11-26T01:44:08.507Z,101181.97
2022-11-26T01:46:36.786Z,101192.87
2022-11-26T01:49:17.743Z,101200.78
2022-11-26T01:51:49.484Z,101195.31
2022-11-26T01:54:18.777Z,101189.78
2022-11-26T01:56:50.525Z,101198.53
2022-11-26T01:59:20.714Z,101220.97
2022-11-26T02:01:49.183Z,101221.28
2022-11-26T02:04:21.962Z,101220.56
2022-11-26T02:06:49.526Z,101219.81
2022-11-26T02:09:16.253Z,101229.00
2022-11-26T02:11:43.382Z,101231.81
2022-11-26T02:14:36.774Z,101245.69
2022-11-26T02:17:03.946Z,101230.31
2022-11-26T02:19:59.085Z,101238.97
2022-11-26T02:22:25.690Z,101235.59
2022-11-26T02:25:07.775Z,101236.09
2022-11-26T02:27:34.390Z,101237.37
2022-11-26T02:30:01.280Z,101240.25
2022-11-26T02:32:48.338Z,101239.63
2022-11-26T02:35:26.877Z,101248.97
2022-11-26T02:38:02.186Z,101255.19
2022-11-26T02:40:29.056Z,101253.63
2022-11-26T02:42:55.858Z,101267.75
2022-11-26T02:45:24.460Z,101264.63
2022-11-26T02:47:53.585Z,101260.69
2022-11-26T02:50:23.142Z,101258.25
2022-11-26T02:52:51.930Z,101273.22
2022-11-26T02:55:20.059Z,101273.63
2022-11-26T02:57:50.764Z,101273.03
2022-11-26T03:00:18.177Z,101276.66
2022-11-26T03:02:44.936Z,101275.75
2022-11-26T03:05:13.658Z,101281.69
2022-11-26T03:07:40.395Z,101285.09
2022-11-26T03:10:07.987Z,101282.47
2022-11-26T03:12:34.696Z,101289.75
2022-11-26T03:15:01.427Z,101291.28
2022-11-26T03:17:28.101Z,101294.50
2022-11-26T03:19:55.789Z,101295.63
2022-11-26T03:22:22.341Z,101302.00
2022-11-26T03:24:49.116Z,101301.69
2022-11-26T03:27:15.861Z,101310.94
2022-11-26T03:29:42.638Z,101305.09
2022-11-26T03:32:09.456Z,101300.00
2022-11-26T03:34:36.548Z,101297.63
2022-11-26T03:37:03.500Z,101301.28
2022-11-26T03:39:30.141Z,101302.09
2022-11-26T03:41:56.805Z,101298.37
2022-11-26T03:44:23.388Z,101300.91
2022-11-26T03:46:50.049Z,101299.28
2022-11-26T03:49:16.781Z,101290.53
2022-11-26T03:51:43.415Z,101296.88
2022-11-26T03:54:10.553Z,101294.97
2022-11-26T03:56:37.237Z,101295.81
2022-11-26T03:59:05.216Z,101298.75
2022-11-26T04:01:32.393Z,101299.72
2022-11-26T04:03:59.156Z,101297.25
2022-11-26T04:06:26.122Z,101295.97
2022-11-26T04:08:52.940Z,101301.56
2022-11-26T04:11:25.227Z,101299.28
2022-11-26T04:13:52.061Z,101310.41
2022-11-26T04:16:23.367Z,101315.31
2022-11-26T04:18:50.092Z,101306.41
2022-11-26T04:21:17.737Z,101318.03
2022-11-26T04:23:44.409Z,101314.72
2022-11-26T04:26:11.153Z,101320.22
2022-11-26T04:28:37.902Z,101337.16
2022-11-26T04:31:04.712Z,101333.47
2022-11-26T04:33:31.573Z,101336.06
2022-11-26T04:35:58.280Z,101331.47
2022-11-26T04:38:26.125Z,101329.69
2022-11-26T04:40:53.234Z,101341.53
2022-11-26T04:43:19.964Z,101342.22
2022-11-26T04:45:47.463Z,101344.88
2022-11-26T04:48:14.401Z,101345.19
2022-11-26T04:50:41.368Z,101351.53
2022-11-26T04:53:08.215Z,101350.50
2022-11-26T04:55:35.207Z,101350.56
2022-11-26T04:58:02.025Z,101350.03
2022-11-26T05:00:28.813Z,101354.59
2022-11-26T05:02:57.185Z,101353.34
2022-11-26T05:05:23.992Z,101362.87
2022-11-26T05:07:50.848Z,101366.56
2022-11-26T05:10:17.654Z,101370.22
2022-11-26T05:12:44.393Z,101368.66
2022-11-26T05:15:11.283Z,101377.25
2022-11-26T05:17:38.157Z,101373.53
2022-11-26T05:20:05.560Z,101374.84
2022-11-26T05:22:32.428Z,101374.53
2022-11-26T05:24:59.200Z,101383.16
2022-11-26T05:27:27.360Z,101383.63
2022-11-26T05:29:54.105Z,101376.44
2022-11-26T05:32:20.754Z,101381.38
2022-11-26T05:34:47.506Z,101388.12
2022-11-26T05:37:14.271Z,101390.03
2022-11-26T05:39:41.201Z,101391.16
2022-11-26T05:42:09.555Z,101380.78
2022-11-26T05:44:37.592Z,101392.09
2022-11-26T05:47:04.889Z,101391.97
2022-11-26T05:49:31.557Z,101380.97
2022-11-26T05:51:58.193Z,101389.72
2022-11-26T05:54:24.790Z,101393.19
2022-11-26T05:56:55.587Z,101407.00
2022-11-26T05:59:26.455Z,101405.38
2022-11-26T06:01:53.296Z,101412.81
2022-11-26T06:04:19.982Z,101405.19
2022-11-26T06:06:46.918Z,101410.75
2022-11-26T06:09:14.124Z,101412.22
2022-11-26T06:11:40.804Z,101421.00
2022-11-26T06:14:07.483Z,101422.44
2022-11-26T06:16:34.775Z,101417.47
2022-11-26T06:19:01.548Z,101429.63
2022-11-26T06:21:28.423Z,101421.66
2022-11-26T06:23:59.358Z,101417.81
2022-11-26T06:26:26.789Z,101424.13
2022-11-26T06:28:53.476Z,101423.87
2022-11-26T06:31:20.239Z,101423.06
2022-11-26T06:33:47.056Z,101427.56
2022-11-26T06:36:14.926Z,101430.19
2022-11-26T06:38:41.973Z,101432.06
2022-11-26T06:41:08.921Z,101436.34
2022-11-26T06:43:35.846Z,101441.84
2022-11-26T06:46:03.679Z,101444.59
2022-11-26T06:48:30.502Z,101440.66
2022-11-26T06:50:57.499Z,101436.19
2022-11-26T06:53:24.275Z,101437.75
2022-11-26T06:55:51.077Z,101447.78
2022-11-26T06:58:17.794Z,101459.44
2022-11-26T07:00:44.423Z,101452.09
2022-11-26T07:03:11.176Z,101462.78
2022-11-26T07:05:38.019Z,101464.31
2022-11-26T07:08:04.921Z,101458.34
2022-11-26T07:10:31.747Z,101460.75
2022-11-26T07:12:58.692Z,101464.66
2022-11-26T07:15:25.422Z,101463.69
2022-11-26T07:17:52.127Z,101472.56
2022-11-26T07:20:18.923Z,101468.28
2022-11-26T07:22:45.840Z,101468.66
2022-11-26T07:25:13.088Z,101474.66
2022-11-26T07:27:40.078Z,101476.75
2022-11-26T07:30:07.321Z,101477.41
2022-11-26T07:32:34.369Z,101484.25
2022-11-26T07:35:02.713Z,101479.81
2022-11-26T07:37:29.400Z,101488.16
2022-11-26T07:39:57.349Z,101485.38
2022-11-26T07:42:24.200Z,101491.41
2022-11-26T07:44:51.234Z,101493.50
2022-11-26T07:47:17.942Z,101489.56
2022-11-26T07:49:44.607Z,101492.03
2022-11-26T07:52:11.273Z,101492.34
2022-11-26T07:54:38.432Z,101492.09
2022-11-26T07:57:05.670Z,101503.66
2022-11-26T07:59:32.881Z,101499.59
2022-11-26T08:01:59.617Z,101495.97
2022-11-26T08:04:26.961Z,101498.16
2022-11-26T08:06:53.684Z,101502.47
2022-11-26T08:09:20.426Z,101504.37
2022-11-26T08:11:47.128Z,101508.94
2022-11-26T08:14:14.053Z,101515.28
2022-11-26T08:16:41.040Z,101515.16
2022-11-26T08:19:11.097Z,101511.91
2022-11-26T08:21:38.779Z,101523.16
2022-11-26T08:24:06.095Z,101523.34
2022-11-26T08:26:37.168Z,101523.34
2022-11-26T08:29:05.311Z,101520.94
2022-11-26T08:31:32.042Z,101518.41
2022-11-26T08:33:59.939Z,101528.50
2022-11-26T08:36:27.506Z,101522.66
2022-11-26T08:38:54.398Z,101524.47
2022-11-26T08:41:21.649Z,101539.41
2022-11-26T08:46:36.198Z,101534.06
2022-11-26T08:49:04.277Z,101540.78
2022-11-26T08:51:31.117Z,101540.88
2022-11-26T08:53:57.842Z,101524.72
2022-11-26T08:56:24.943Z,101542.00
2022-11-26T08:58:51.982Z,101542.37
2022-11-26T09:01:20.522Z,101545.56
2022-11-26T09:03:51.399Z,101552.09
2022-11-26T09:06:18.751Z,101555.72
2022-11-26T09:09:05.838Z,101562.25
2022-11-26T09:11:33.653Z,101563.22
2022-11-26T09:14:00.633Z,101561.25
2022-11-26T09:16:27.715Z,101567.88
2022-11-26T09:18:54.498Z,101565.59
2022-11-26T09:21:21.646Z,101561.53
2022-11-26T09:23:48.456Z,101567.31
2022-11-26T09:26:15.247Z,101569.44
2022-11-26T09:28:42.041Z,101564.56
2022-11-26T09:31:08.808Z,101570.78
2022-11-26T09:33:35.579Z,101570.78
2022-11-26T09:36:06.269Z,101575.00
2022-11-26T09:38:33.473Z,101578.12
2022-11-26T09:41:19.011Z,101572.87
2022-11-26T09:43:53.525Z,101586.28
2022-11-26T09:46:24.994Z,101575.72
2022-11-26T09:48:54.647Z,101581.34
2022-11-26T09:51:21.753Z,101587.59
2022-11-26T09:53:50.635Z,101578.97
2022-11-26T09:56:21.435Z,101583.66
2022-11-26T09:59:01.828Z,101581.75
2022-11-26T10:01:30.696Z,101585.41
2022-11-26T10:03:57.548Z,101584.62
2022-11-26T10:06:33.281Z,101588.56
2022-11-26T10:09:19.125Z,101581.91
2022-11-26T10:11:49.506Z,101578.16
2022-11-26T10:14:38.000Z,101573.81
2022-11-26T10:17:23.320Z,101578.03
2022-11-26T10:19:52.825Z,101575.03
2022-11-26T10:22:41.205Z,101580.81
2022-11-26T10:25:16.398Z,101576.41
2022-11-26T10:27:43.281Z,101572.78
2022-11-26T10:30:17.224Z,101570.16
2022-11-26T10:32:45.863Z,101571.81
2022-11-26T10:35:20.027Z,101571.69
2022-11-26T10:37:46.913Z,101574.19
2022-11-26T10:40:19.757Z,101565.87
2022-11-26T10:42:59.016Z,101563.38
2022-11-26T10:45:27.976Z,101561.59
2022-11-26T10:48:14.616Z,101563.41
2022-11-26T10:50:49.286Z,101565.06
2022-11-26T10:53:23.005Z,101577.94
2022-11-26T10:55:51.028Z,101574.38
2022-11-26T10:58:20.430Z,101567.91
2022-11-26T11:00:50.285Z,101573.66
2022-11-26T11:03:44.643Z,101560.69
2022-11-26T11:06:13.201Z,101565.09
2022-11-26T11:08:40.030Z,101563.03
2022-11-26T11:11:18.454Z,101570.66
2022-11-26T11:13:47.249Z,101569.97
2022-11-26T11:16:16.217Z,101575.34
2022-11-26T11:18:51.209Z,101566.31
2022-11-26T11:21:19.011Z,101569.91
2022-11-26T11:24:07.794Z,101572.16
2022-11-26T11:26:39.455Z,101561.97
2022-11-26T11:29:10.609Z,101561.81
2022-11-26T11:31:45.322Z,101564.97
2022-11-26T11:34:14.109Z,101564.66
2022-11-26T11:36:40.903Z,101565.84
2022-11-26T11:39:26.763Z,101561.56
2022-11-26T11:41:53.594Z,101562.97
2022-11-26T11:44:38.732Z,101565.16
2022-11-26T11:47:13.230Z,101567.69
2022-11-26T11:49:40.123Z,101567.00
2022-11-26T11:52:20.111Z,101574.66
2022-11-26T11:54:58.045Z,101575.53
2022-11-26T11:57:36.962Z,101573.38
2022-11-26T12:00:12.253Z,101574.91
2022-11-26T12:02:57.532Z,101572.56
2022-11-26T12:05:41.490Z,101575.72
2022-11-26T12:08:14.232Z,101567.91
2022-11-26T12:10:51.804Z,101568.66
2022-11-26T12:13:21.574Z,101566.53
2022-11-26T12:15:48.418Z,101570.41
2022-11-26T12:18:15.231Z,101574.12
2022-11-26T12:20:47.056Z,101580.75
2022-11-26T12:23:32.340Z,101576.94
2022-11-26T12:26:06.535Z,101564.47
2022-11-26T12:28:45.782Z,101572.44
2022-11-26T12:31:30.396Z,101577.25
2022-11-26T12:34:07.119Z,101576.81
2022-11-26T12:36:40.141Z,101575.22
2022-11-26T12:39:18.883Z,101580.03
2022-11-26T12:42:12.052Z,101580.28
2022-11-26T12:44:43.914Z,101584.38
2022-11-26T12:47:21.094Z,101587.28
2022-11-26T12:50:06.774Z,101582.87
2022-11-26T12:52:39.850Z,101576.47
2022-11-26T12:55:14.313Z,101571.50
2022-11-26T12:58:13.651Z,101577.47
2022-11-26T13:00:40.756Z,101576.66
2022-11-26T13:03:13.894Z,101572.25
2022-11-26T13:05:52.190Z,101560.16
2022-11-26T13:08:26.952Z,101555.97
2022-11-26T13:11:07.187Z,101572.53
2022-11-26T13:13:58.936Z,101562.94
2022-11-26T13:16:25.710Z,101569.41
2022-11-26T13:19:02.677Z,101567.34
2022-11-26T13:21:46.414Z,101572.09
2022-11-26T13:24:18.555Z,101575.84
2022-11-26T13:27:18.242Z,101579.47
2022-11-26T13:29:58.209Z,101589.97
2022-11-26T13:32:44.635Z,101584.78
2022-11-26T13:35:14.533Z,101595.63
2022-11-26T13:37:50.580Z,101608.44
2022-11-26T13:40:29.290Z,101604.84
2022-11-26T13:43:08.388Z,101596.69
2022-11-26T13:45:54.007Z,101605.84
2022-11-26T13:48:27.711Z,101597.50
2022-11-26T13:50:59.815Z,101605.56
2022-11-26T13:53:34.997Z,101607.94
2022-11-26T13:56:07.727Z,101608.78
2022-11-26T13:58:46.200Z,101612.31
2022-11-26T14:01:37.432Z,101608.97
2022-11-26T14:04:07.973Z,101609.63
2022-11-26T14:06:35.231Z,101619.94
2022-11-26T14:09:02.384Z,101608.81
2022-11-26T14:11:41.113Z,101621.25
2022-11-26T14:14:26.087Z,101616.25
2022-11-26T14:17:02.503Z,101617.47
2022-11-26T14:19:41.672Z,101607.91
2022-11-26T14:22:28.741Z,101603.47
2022-11-26T14:24:57.042Z,101609.44
2022-11-26T14:27:29.198Z,101611.25
2022-11-26T14:30:02.030Z,101600.81
2022-11-26T14:32:31.622Z,101613.81
2022-11-26T14:34:58.487Z,101614.06
2022-11-26T14:37:27.099Z,101627.19
2022-11-26T14:40:09.827Z,101620.28
2022-11-26T14:42:36.623Z,101609.72
2022-11-26T14:45:16.522Z,101615.91
2022-11-26T14:47:48.117Z,101623.84
2022-11-26T14:50:16.796Z,101633.44
2022-11-26T14:52:45.007Z,101640.31
2022-11-26T14:55:24.137Z,101643.16
2022-11-26T14:57:54.571Z,101633.47
2022-11-26T15:00:23.607Z,101632.63
2022-11-26T15:02:50.564Z,101626.37
2022-11-26T15:05:20.191Z,101629.97
2022-11-26T15:07:47.966Z,101629.97
2022-11-26T15:10:14.739Z,101637.91
2022-11-26T15:12:42.712Z,101636.13
2022-11-26T15:15:13.617Z,101634.34
2022-11-26T15:17:43.586Z,101630.75
2022-11-26T15:20:18.710Z,101627.28
2022-11-26T15:22:53.670Z,101625.53
2022-11-26T15:25:34.228Z,101625.53
2022-11-26T15:28:16.888Z,101626.41
2022-11-26T15:30:53.221Z,101626.41
2022-11-26T15:33:20.520Z,101620.28
2022-11-26T15:35:50.687Z,101626.41
2022-11-26T15:38:18.498Z,101625.53
2022-11-26T15:40:50.351Z,101623.75
2022-11-26T15:43:21.233Z,101622.81
2022-11-26T15:45:48.754Z,101623.66
2022-11-26T15:48:28.037Z,101619.28
2022-11-26T15:51:04.198Z,101628.91
2022-11-26T15:53:39.062Z,101629.78
2022-11-26T15:56:06.127Z,101635.00
2022-11-26T15:58:36.357Z,101639.38
2022-11-26T16:01:04.999Z,101636.72
2022-11-26T16:03:34.477Z,101635.75
2022-11-26T16:06:01.568Z,101641.94
2022-11-26T16:08:32.629Z,101640.13
2022-11-26T16:11:09.707Z,101640.09
2022-11-26T16:13:36.489Z,101639.19
2022-11-26T16:16:08.671Z,101640.81
2022-11-26T16:18:40.035Z,101641.66
2022-11-26T16:21:06.788Z,101644.22
2022-11-26T16:23:33.538Z,101645.09
2022-11-26T16:26:07.636Z,101643.31
2022-11-26T16:28:54.764Z,101645.75
2022-11-26T16:31:21.931Z,101651.00
2022-11-26T16:33:50.835Z,101646.59
2022-11-26T16:36:19.379Z,101654.50
2022-11-26T16:38:46.771Z,101656.03
2022-11-26T16:41:17.053Z,101662.19
2022-11-26T16:43:44.759Z,101660.47
2022-11-26T16:46:13.558Z,101661.38
2022-11-26T16:48:41.162Z,101656.87
2022-11-26T16:51:07.834Z,101667.34
2022-11-26T16:53:34.763Z,101667.37
2022-11-26T16:56:01.680Z,101673.06
2022-11-26T16:58:29.724Z,101663.53
2022-11-26T17:00:57.007Z,101665.19
2022-11-26T17:03:24.638Z,101664.37
2022-11-26T17:05:56.594Z,101673.19
2022-11-26T17:08:23.460Z,101669.62
2022-11-26T17:10:51.435Z,101661.66
2022-11-26T17:13:18.476Z,101668.69
2022-11-26T17:15:45.223Z,101663.34
2022-11-26T17:18:22.909Z,101665.09
2022-11-26T17:20:50.812Z,101673.84
2022-11-26T17:23:18.710Z,101670.38
2022-11-26T17:25:46.720Z,101666.75
2022-11-26T17:28:14.041Z,101676.44
2022-11-26T17:30:41.455Z,101680.75
2022-11-26T17:33:08.830Z,101686.09
2022-11-26T17:35:36.066Z,101687.97
2022-11-26T17:38:03.881Z,101682.91
2022-11-26T17:40:30.867Z,101682.59
2022-11-26T17:42:57.747Z,101683.00
2022-11-26T17:45:24.542Z,101683.03
2022-11-26T17:47:51.474Z,101684.50
2022-11-26T17:50:22.307Z,101682.69
2022-11-26T17:52:55.031Z,101681.72
2022-11-26T17:55:23.469Z,101684.13
2022-11-26T17:57:50.719Z,101687.50
2022-11-26T18:00:20.017Z,101690.94
2022-11-26T18:02:47.029Z,101700.44
2022-11-26T18:05:14.504Z,101707.41
2022-11-26T18:07:42.185Z,101708.91
2022-11-26T18:10:16.050Z,101707.41
2022-11-26T18:12:43.513Z,101703.94
2022-11-26T18:15:16.762Z,101695.31
2022-11-26T18:17:48.469Z,101703.94
2022-11-26T18:20:15.838Z,101709.59
2022-11-26T18:22:42.739Z,101706.44
2022-11-26T18:25:09.691Z,101702.16
2022-11-26T18:27:36.416Z,101699.59
2022-11-26T18:30:03.975Z,101703.97
2022-11-26T18:32:30.761Z,101708.63
2022-11-26T18:34:57.559Z,101703.44
2022-11-26T18:37:24.369Z,101705.59
2022-11-26T18:39:51.348Z,101699.47
2022-11-26T18:45:09.995Z,101696.16
2022-11-26T18:47:36.979Z,101698.91
2022-11-26T18:50:03.888Z,101691.03
2022-11-26T18:52:30.597Z,101697.09
2022-11-26T18:54:57.350Z,101699.69
2022-11-26T18:57:24.208Z,101693.66
2022-11-26T18:59:51.688Z,101703.22
2022-11-26T19:02:18.591Z,101700.59
2022-11-26T19:04:46.034Z,101703.97
2022-11-26T19:07:14.456Z,101709.91
2022-11-26T19:09:43.075Z,101710.88
2022-11-26T19:12:19.378Z,101705.06
2022-11-26T19:14:46.178Z,101707.03
2022-11-26T19:17:12.964Z,101707.16
2022-11-26T19:19:39.917Z,101709.28
2022-11-26T19:22:06.752Z,101706.72
2022-11-26T19:24:33.466Z,101712.72
2022-11-26T19:27:00.475Z,101713.47
2022-11-26T19:29:27.231Z,101716.88
2022-11-26T19:31:54.176Z,101720.25
2022-11-26T19:34:20.967Z,101721.94
2022-11-26T19:36:49.272Z,101723.91
2022-11-26T19:39:16.804Z,101716.88
2022-11-26T19:41:43.738Z,101726.59
2022-11-26T19:44:10.586Z,101726.03
2022-11-26T19:46:40.938Z,101732.56
2022-11-26T19:49:09.736Z,101734.31
2022-11-26T19:51:36.517Z,101730.62
2022-11-26T19:54:03.901Z,101734.78
2022-11-26T19:56:33.315Z,101738.53
2022-11-26T19:59:02.960Z,101725.59
2022-11-26T20:01:31.909Z,101735.66
2022-11-26T20:04:00.092Z,101733.50
2022-11-26T20:06:46.999Z,101730.16
2022-11-26T20:09:34.371Z,101734.97
2022-11-26T20:12:01.587Z,101746.94
2022-11-26T20:14:28.315Z,101745.34
2022-11-26T20:16:59.382Z,101748.97
2022-11-26T20:19:31.513Z,101747.28
2022-11-26T20:22:00.481Z,101742.97
2022-11-26T20:24:27.266Z,101747.12
2022-11-26T20:26:54.185Z,101746.56
2022-11-26T20:29:22.263Z,101749.38
2022-11-26T20:31:50.403Z,101744.94
2022-11-26T20:34:18.506Z,101742.56
2022-11-26T20:36:45.395Z,101738.13
2022-11-26T20:39:19.601Z,101737.41
2022-11-26T20:41:46.942Z,101736.78
2022-11-26T20:44:14.383Z,101741.97
2022-11-26T20:46:41.152Z,101746.69
2022-11-26T20:49:08.261Z,101733.59
2022-11-26T20:51:35.190Z,101744.81
2022-11-26T20:54:02.346Z,101745.22
2022-11-26T20:56:29.341Z,101742.44
2022-11-26T20:58:57.554Z,101743.38
2022-11-26T21:01:25.769Z,101756.06
2022-11-26T21:03:52.920Z,101751.94
2022-11-26T21:06:25.906Z,101752.13
2022-11-26T21:08:57.639Z,101754.75
2022-11-26T21:11:24.355Z,101759.50
2022-11-26T21:13:51.142Z,101753.75
2022-11-26T21:16:19.425Z,101758.69
2022-11-26T21:18:46.871Z,101749.16
2022-11-26T21:21:15.077Z,101752.06
2022-11-26T21:23:42.732Z,101752.53
2022-11-26T21:26:18.129Z,101759.88
2022-11-26T21:28:44.986Z,101748.63
2022-11-26T21:31:14.029Z,101751.22
2022-11-26T21:33:41.252Z,101756.72
2022-11-26T21:36:09.144Z,101745.94
2022-11-26T21:38:36.926Z,101749.97
2022-11-26T21:41:22.578Z,101751.00
2022-11-26T21:43:49.655Z,101752.81
2022-11-26T21:46:18.122Z,101749.81
2022-11-26T21:48:45.247Z,101756.06
2022-11-26T21:51:13.906Z,101758.44
2022-11-26T21:53:40.876Z,101756.22
2022-11-26T21:56:07.758Z,101755.31
2022-11-26T21:58:36.122Z,101753.81
2022-11-26T22:01:09.442Z,101753.19
2022-11-26T22:03:36.296Z,101752.53
2022-11-26T22:06:03.311Z,101745.22
2022-11-26T22:08:30.109Z,101745.75
2022-11-26T22:10:57.022Z,101747.31
2022-11-26T22:13:23.959Z,101756.03
2022-11-26T22:15:51.130Z,101753.41
2022-11-26T22:18:18.016Z,101746.88
2022-11-26T22:20:52.053Z,101754.69
2022-11-26T22:23:19.230Z,101748.34
2022-11-26T22:25:46.724Z,101754.22
2022-11-26T22:28:13.393Z,101748.31
2022-11-26T22:30:40.444Z,101735.28
2022-11-26T22:33:07.392Z,101731.44
2022-11-26T22:35:35.634Z,101736.00
2022-11-26T22:38:02.346Z,101728.47
2022-11-26T22:40:29.235Z,101728.81
2022-11-26T22:42:57.028Z,101736.13
2022-11-26T22:45:23.711Z,101732.78
2022-11-26T22:47:52.857Z,101734.03
2022-11-26T22:50:19.872Z,101744.56
2022-11-26T22:52:46.506Z,101734.66
2022-11-26T22:55:13.225Z,101732.69
2022-11-26T22:57:40.204Z,101732.91
2022-11-26T23:00:09.737Z,101739.44
2022-11-26T23:02:36.522Z,101744.47
2022-11-26T23:05:03.380Z,101732.75
2022-11-26T23:07:30.137Z,101736.97
2022-11-26T23:09:56.885Z,101736.66
2022-11-26T23:12:23.511Z,101733.62
2022-11-26T23:14:50.302Z,101723.72
2022-11-26T23:17:17.123Z,101733.09
2022-11-26T23:19:43.850Z,101723.12
2022-11-26T23:22:10.519Z,101720.69
2022-11-26T23:24:37.231Z,101723.50
2022-11-26T23:27:04.103Z,101719.38
2022-11-26T23:29:30.913Z,101718.50
2022-11-26T23:31:58.463Z,101711.59
2022-11-26T23:34:25.265Z,101707.78
2022-11-26T23:36:52.034Z,101697.25
2022-11-26T23:39:19.198Z,101700.69
2022-11-26T23:41:46.338Z,101702.19
2022-11-26T23:44:13.047Z,101695.16
2022-11-26T23:46:40.204Z,101689.25
2022-11-26T23:49:07.015Z,101695.59
2022-11-26T23:51:34.342Z,101684.16
2022-11-26T23:54:01.025Z,101692.19
2022-11-26T23:56:29.694Z,101686.34
2022-11-26T23:58:57.906Z,101677.56
